sensor_id;sensor_type;location;lat;lon;timestamp;P1;durP1;ratioP1;P2;durP2;ratioP2
3696;SDS011;60662;48.810;8.872;2022-11-20T11:04:37;4.32;;;2.72;;
3696;SDS011;60662;48.810;8.872;2022-11-20T11:05:46;6.10;;;2.85;;
3696;SDS011;60662;48.810;8.872;2022-11-20T11:06:53;7.32;;;2.80;;
3696;SDS011;60662;48.810;8.872;2022-11-20T11:08:16;3.45;;;2.42;;
3696;SDS011;60662;48.810;8.872;2022-11-20T11:09:21;7.45;;;3.42;;
3696;SDS011;60662;48.810;8.872;2022-11-20T11:10:39;6.75;;;2.95;;
3696;SDS011;60662;48.810;8.872;2022-11-20T11:12:00;11.63;;;4.07;;
3696;SDS011;60662;48.810;8.872;2022-11-20T11:13:07;17.17;;;7.88;;
3696;SDS011;60662;48.810;8.872;2022-11-20T11:14:21;11.82;;;6.55;;
3696;SDS011;60662;48.810;8.872;2022-11-20T11:15:30;11.48;;;5.10;;
3696;SDS011;60662;48.810;8.872;2022-11-20T11:16:49;8.75;;;2.95;;
3696;SDS011;60662;48.810;8.872;2022-11-20T11:17:52;9.15;;;3.35;;
3696;SDS011;60662;48.810;8.872;2022-11-20T11:19:06;7.32;;;3.08;;
3696;SDS011;60662;48.810;8.872;2022-11-20T11:20:16;3.58;;;2.15;;
3696;SDS011;60662;48.810;8.872;2022-11-20T11:21:21;4.20;;;1.38;;
3696;SDS011;60662;48.810;8.872;2022-11-20T11:22:25;4.57;;;1.83;;
3696;SDS011;60662;48.810;8.872;2022-11-20T11:24:33;7.90;;;2.22;;
3696;SDS011;60662;48.810;8.872;2022-11-20T11:30:14;4.00;;;1.75;;
3696;SDS011;60662;48.810;8.872;2022-11-20T11:31:22;6.22;;;2.30;;
3696;SDS011;60662;48.810;8.872;2022-11-20T11:32:31;5.00;;;1.50;;
3696;SDS011;60662;48.810;8.872;2022-11-20T11:33:32;8.18;;;1.83;;
3696;SDS011;60662;48.810;8.872;2022-11-20T11:34:36;3.78;;;1.23;;
3696;SDS011;60662;48.810;8.872;2022-11-20T11:35:43;3.10;;;1.60;;
3696;SDS011;60662;48.810;8.872;2022-11-20T11:36:53;7.38;;;1.50;;
3696;SDS011;60662;48.810;8.872;2022-11-20T11:38:06;5.78;;;1.60;;
3696;SDS011;60662;48.810;8.872;2022-11-20T11:39:17;2.75;;;1.40;;
3696;SDS011;60662;48.810;8.872;2022-11-20T11:40:21;10.32;;;2.63;;
3696;SDS011;60662;48.810;8.872;2022-11-20T11:41:28;16.83;;;5.00;;
3696;SDS011;60662;48.810;8.872;2022-11-20T11:42:34;10.93;;;1.98;;
3696;SDS011;60662;48.810;8.872;2022-11-20T11:43:36;2.85;;;1.33;;
3696;SDS011;60662;48.810;8.872;2022-11-20T11:44:58;6.05;;;2.13;;
3696;SDS011;60662;48.810;8.872;2022-11-20T11:47:24;4.72;;;1.55;;
3696;SDS011;60662;48.810;8.872;2022-11-20T11:48:54;9.02;;;1.90;;
3696;SDS011;60662;48.810;8.872;2022-11-20T11:51:10;4.88;;;1.80;;
3696;SDS011;60662;48.810;8.872;2022-11-20T11:52:16;3.97;;;1.45;;
3696;SDS011;60662;48.810;8.872;2022-11-20T11:53:21;6.00;;;1.65;;
3696;SDS011;60662;48.810;8.872;2022-11-20T11:54:26;9.27;;;1.58;;
3696;SDS011;60662;48.810;8.872;2022-11-20T11:55:35;10.50;;;2.10;;
3696;SDS011;60662;48.810;8.872;2022-11-20T11:56:41;4.75;;;1.90;;
3696;SDS011;60662;48.810;8.872;2022-11-20T11:57:54;3.85;;;1.55;;
3696;SDS011;60662;48.810;8.872;2022-11-20T11:59:04;3.75;;;1.80;;
3696;SDS011;60662;48.810;8.872;2022-11-20T12:00:14;4.43;;;1.60;;
3696;SDS011;60662;48.810;8.872;2022-11-20T12:01:22;4.65;;;1.60;;
3696;SDS011;60662;48.810;8.872;2022-11-20T12:02:47;3.92;;;1.33;;
3696;SDS011;60662;48.810;8.872;2022-11-20T12:04:03;4.07;;;1.50;;
3696;SDS011;60662;48.810;8.872;2022-11-20T12:05:16;3.72;;;1.13;;
3696;SDS011;60662;48.810;8.872;2022-11-20T12:06:20;8.73;;;2.03;;
3696;SDS011;60662;48.810;8.872;2022-11-20T12:08:49;3.47;;;1.40;;
3696;SDS011;60662;48.810;8.872;2022-11-20T12:09:56;2.78;;;1.10;;
3696;SDS011;60662;48.810;8.872;2022-11-20T12:11:04;6.53;;;1.52;;
3696;SDS011;60662;48.810;8.872;2022-11-20T12:12:27;10.73;;;1.50;;
3696;SDS011;60662;48.810;8.872;2022-11-20T12:13:53;3.83;;;1.52;;
3696;SDS011;60662;48.810;8.872;2022-11-20T12:15:04;3.95;;;1.55;;
3696;SDS011;60662;48.810;8.872;2022-11-20T12:16:13;5.35;;;1.23;;
3696;SDS011;60662;48.810;8.872;2022-11-20T12:17:16;4.65;;;1.00;;
3696;SDS011;60662;48.810;8.872;2022-11-20T12:18:19;3.97;;;1.48;;
3696;SDS011;60662;48.810;8.872;2022-11-20T12:19:22;5.40;;;1.33;;
3696;SDS011;60662;48.810;8.872;2022-11-20T12:20:36;4.95;;;1.15;;
3696;SDS011;60662;48.810;8.872;2022-11-20T12:25:30;3.97;;;1.42;;
3696;SDS011;60662;48.810;8.872;2022-11-20T12:30:14;3.10;;;1.10;;
3696;SDS011;60662;48.810;8.872;2022-11-20T12:39:46;5.85;;;1.90;;
3696;SDS011;60662;48.810;8.872;2022-11-20T12:51:37;6.68;;;0.90;;
3696;SDS011;60662;48.810;8.872;2022-11-20T12:52:53;4.10;;;1.10;;
3696;SDS011;60662;48.810;8.872;2022-11-20T12:54:08;2.78;;;1.08;;
3696;SDS011;60662;48.810;8.872;2022-11-20T12:57:36;5.55;;;1.58;;
3696;SDS011;60662;48.810;8.872;2022-11-20T12:58:56;2.28;;;1.00;;
3696;SDS011;60662;48.810;8.872;2022-11-20T13:00:25;9.45;;;1.10;;
3696;SDS011;60662;48.810;8.872;2022-11-20T13:02:58;2.78;;;1.30;;
3696;SDS011;60662;48.810;8.872;2022-11-20T13:07:09;3.20;;;1.30;;
3696;SDS011;60662;48.810;8.872;2022-11-20T13:09:44;7.95;;;1.27;;
3696;SDS011;60662;48.810;8.872;2022-11-20T13:10:59;4.30;;;1.05;;
3696;SDS011;60662;48.810;8.872;2022-11-20T13:13:43;7.20;;;1.48;;
3696;SDS011;60662;48.810;8.872;2022-11-20T13:14:59;5.78;;;1.20;;
3696;SDS011;60662;48.810;8.872;2022-11-20T13:18:37;2.53;;;0.98;;
3696;SDS011;60662;48.810;8.872;2022-11-20T13:19:46;3.08;;;1.05;;
3696;SDS011;60662;48.810;8.872;2022-11-20T13:20:50;9.73;;;1.20;;
3696;SDS011;60662;48.810;8.872;2022-11-20T13:21:52;6.60;;;1.20;;
3696;SDS011;60662;48.810;8.872;2022-11-20T13:22:54;1.98;;;0.85;;
3696;SDS011;60662;48.810;8.872;2022-11-20T13:24:07;5.05;;;1.02;;
3696;SDS011;60662;48.810;8.872;2022-11-20T13:25:34;5.80;;;1.70;;
3696;SDS011;60662;48.810;8.872;2022-11-20T13:26:37;3.92;;;1.40;;
3696;SDS011;60662;48.810;8.872;2022-11-20T13:27:46;8.25;;;1.95;;
3696;SDS011;60662;48.810;8.872;2022-11-20T13:30:23;2.92;;;1.40;;
3696;SDS011;60662;48.810;8.872;2022-11-20T13:31:33;3.50;;;1.50;;
3696;SDS011;60662;48.810;8.872;2022-11-20T13:32:36;1.75;;;0.90;;
3696;SDS011;60662;48.810;8.872;2022-11-20T13:33:49;1.70;;;0.90;;
3696;SDS011;60662;48.810;8.872;2022-11-20T13:34:56;2.67;;;1.15;;
3696;SDS011;60662;48.810;8.872;2022-11-20T13:36:03;3.47;;;1.08;;
3696;SDS011;60662;48.810;8.872;2022-11-20T13:37:23;3.20;;;1.27;;
3696;SDS011;60662;48.810;8.872;2022-11-20T13:38:49;2.53;;;1.33;;
3696;SDS011;60662;48.810;8.872;2022-11-20T13:39:52;5.65;;;1.50;;
3696;SDS011;60662;48.810;8.872;2022-11-20T13:40:54;1.83;;;1.08;;
3696;SDS011;60662;48.810;8.872;2022-11-20T13:42:02;8.38;;;1.10;;
3696;SDS011;60662;48.810;8.872;2022-11-20T13:43:42;8.00;;;1.30;;
3696;SDS011;60662;48.810;8.872;2022-11-20T13:44:53;3.55;;;1.40;;
3696;SDS011;60662;48.810;8.872;2022-11-20T13:45:57;4.55;;;0.85;;
3696;SDS011;60662;48.810;8.872;2022-11-20T13:47:01;2.75;;;1.20;;
3696;SDS011;60662;48.810;8.872;2022-11-20T13:48:18;2.83;;;1.10;;
3696;SDS011;60662;48.810;8.872;2022-11-20T13:51:59;4.57;;;1.80;;
3696;SDS011;60662;48.810;8.872;2022-11-20T13:55:50;2.30;;;1.40;;
3696;SDS011;60662;48.810;8.872;2022-11-20T14:00:25;3.83;;;1.50;;
3696;SDS011;60662;48.810;8.872;2022-11-20T14:01:29;3.83;;;1.30;;
3696;SDS011;60662;48.810;8.872;2022-11-20T14:02:35;6.47;;;1.13;;
3696;SDS011;60662;48.810;8.872;2022-11-20T14:03:37;3.90;;;1.45;;
3696;SDS011;60662;48.810;8.872;2022-11-20T14:04:59;2.97;;;1.20;;
3696;SDS011;60662;48.810;8.872;2022-11-20T14:06:03;2.33;;;1.10;;
3696;SDS011;60662;48.810;8.872;2022-11-20T14:07:06;15.07;;;2.83;;
3696;SDS011;60662;48.810;8.872;2022-11-20T14:08:11;10.55;;;4.10;;
3696;SDS011;60662;48.810;8.872;2022-11-20T14:09:28;8.73;;;3.25;;
3696;SDS011;60662;48.810;8.872;2022-11-20T14:10:36;7.38;;;3.67;;
3696;SDS011;60662;48.810;8.872;2022-11-20T14:11:46;11.20;;;3.95;;
3696;SDS011;60662;48.810;8.872;2022-11-20T14:12:48;5.88;;;2.28;;
3696;SDS011;60662;48.810;8.872;2022-11-20T14:13:52;5.38;;;2.30;;
3696;SDS011;60662;48.810;8.872;2022-11-20T14:14:55;5.32;;;1.77;;
3696;SDS011;60662;48.810;8.872;2022-11-20T14:15:57;2.20;;;1.00;;
3696;SDS011;60662;48.810;8.872;2022-11-20T14:17:08;6.18;;;1.40;;
3696;SDS011;60662;48.810;8.872;2022-11-20T14:18:22;3.25;;;1.48;;
3696;SDS011;60662;48.810;8.872;2022-11-20T14:19:25;9.23;;;2.03;;
3696;SDS011;60662;48.810;8.872;2022-11-20T14:20:29;5.65;;;2.00;;
3696;SDS011;60662;48.810;8.872;2022-11-20T14:21:32;9.68;;;4.93;;
3696;SDS011;60662;48.810;8.872;2022-11-20T14:22:33;9.55;;;3.38;;
3696;SDS011;60662;48.810;8.872;2022-11-20T14:23:35;14.40;;;5.40;;
3696;SDS011;60662;48.810;8.872;2022-11-20T14:24:36;19.08;;;8.35;;
3696;SDS011;60662;48.810;8.872;2022-11-20T14:25:41;16.15;;;5.78;;
3696;SDS011;60662;48.810;8.872;2022-11-20T14:26:47;5.00;;;1.50;;
3696;SDS011;60662;48.810;8.872;2022-11-20T14:27:53;6.80;;;1.20;;
3696;SDS011;60662;48.810;8.872;2022-11-20T14:28:57;5.32;;;1.75;;
3696;SDS011;60662;48.810;8.872;2022-11-20T14:30:00;5.93;;;2.50;;
3696;SDS011;60662;48.810;8.872;2022-11-20T14:31:02;4.13;;;1.48;;
3696;SDS011;60662;48.810;8.872;2022-11-20T14:32:04;5.22;;;1.60;;
3696;SDS011;60662;48.810;8.872;2022-11-20T14:33:05;4.95;;;1.45;;
3696;SDS011;60662;48.810;8.872;2022-11-20T14:34:13;5.68;;;1.58;;
3696;SDS011;60662;48.810;8.872;2022-11-20T14:35:21;3.28;;;1.75;;
3696;SDS011;60662;48.810;8.872;2022-11-20T14:36:26;6.53;;;1.92;;
3696;SDS011;60662;48.810;8.872;2022-11-20T14:37:33;3.53;;;1.65;;
3696;SDS011;60662;48.810;8.872;2022-11-20T14:38:37;6.82;;;2.05;;
3696;SDS011;60662;48.810;8.872;2022-11-20T14:39:42;3.00;;;1.33;;
3696;SDS011;60662;48.810;8.872;2022-11-20T14:40:50;3.83;;;1.33;;
3696;SDS011;60662;48.810;8.872;2022-11-20T14:41:52;5.32;;;1.65;;
3696;SDS011;60662;48.810;8.872;2022-11-20T14:42:54;3.60;;;1.65;;
3696;SDS011;60662;48.810;8.872;2022-11-20T14:43:57;4.97;;;2.10;;
3696;SDS011;60662;48.810;8.872;2022-11-20T14:45:00;3.95;;;1.88;;
3696;SDS011;60662;48.810;8.872;2022-11-20T14:46:03;4.45;;;1.50;;
3696;SDS011;60662;48.810;8.872;2022-11-20T14:47:08;4.32;;;1.10;;
3696;SDS011;60662;48.810;8.872;2022-11-20T14:48:13;4.53;;;1.20;;
3696;SDS011;60662;48.810;8.872;2022-11-20T14:49:16;2.40;;;1.00;;
3696;SDS011;60662;48.810;8.872;2022-11-20T14:50:19;1.90;;;1.10;;
3696;SDS011;60662;48.810;8.872;2022-11-20T14:51:31;4.20;;;1.10;;
3696;SDS011;60662;48.810;8.872;2022-11-20T14:52:34;6.30;;;1.33;;
3696;SDS011;60662;48.810;8.872;2022-11-20T14:53:35;5.57;;;1.25;;
3696;SDS011;60662;48.810;8.872;2022-11-20T14:54:44;5.45;;;1.23;;
3696;SDS011;60662;48.810;8.872;2022-11-20T14:55:53;2.58;;;1.42;;
3696;SDS011;60662;48.810;8.872;2022-11-20T14:57:01;6.38;;;1.98;;
3696;SDS011;60662;48.810;8.872;2022-11-20T14:58:20;2.80;;;1.35;;
3696;SDS011;60662;48.810;8.872;2022-11-20T14:59:24;4.72;;;1.10;;
3696;SDS011;60662;48.810;8.872;2022-11-20T15:00:34;5.75;;;1.40;;
3696;SDS011;60662;48.810;8.872;2022-11-20T15:01:36;5.55;;;1.42;;
3696;SDS011;60662;48.810;8.872;2022-11-20T15:02:40;5.45;;;1.30;;
3696;SDS011;60662;48.810;8.872;2022-11-20T15:03:42;2.72;;;1.00;;
3696;SDS011;60662;48.810;8.872;2022-11-20T15:04:56;2.75;;;1.13;;
3696;SDS011;60662;48.810;8.872;2022-11-20T15:06:00;4.13;;;1.77;;
3696;SDS011;60662;48.810;8.872;2022-11-20T15:07:02;4.65;;;1.30;;
3696;SDS011;60662;48.810;8.872;2022-11-20T15:08:07;3.58;;;1.70;;
3696;SDS011;60662;48.810;8.872;2022-11-20T15:09:13;2.80;;;1.60;;
3696;SDS011;60662;48.810;8.872;2022-11-20T15:11:21;9.90;;;1.60;;
3696;SDS011;60662;48.810;8.872;2022-11-20T15:12:32;7.22;;;1.45;;
3696;SDS011;60662;48.810;8.872;2022-11-20T15:13:38;6.90;;;1.63;;
3696;SDS011;60662;48.810;8.872;2022-11-20T15:14:40;6.63;;;2.05;;
3696;SDS011;60662;48.810;8.872;2022-11-20T15:16:53;6.82;;;1.52;;
3696;SDS011;60662;48.810;8.872;2022-11-20T15:17:55;5.15;;;1.77;;
3696;SDS011;60662;48.810;8.872;2022-11-20T15:18:56;4.38;;;1.30;;
3696;SDS011;60662;48.810;8.872;2022-11-20T15:19:58;9.23;;;2.00;;
3696;SDS011;60662;48.810;8.872;2022-11-20T15:21:02;3.38;;;1.40;;
3696;SDS011;60662;48.810;8.872;2022-11-20T15:22:09;5.97;;;2.38;;
3696;SDS011;60662;48.810;8.872;2022-11-20T15:23:20;6.75;;;2.70;;
3696;SDS011;60662;48.810;8.872;2022-11-20T15:24:21;5.05;;;2.13;;
3696;SDS011;60662;48.810;8.872;2022-11-20T15:25:26;10.68;;;2.08;;
3696;SDS011;60662;48.810;8.872;2022-11-20T15:26:29;7.90;;;2.70;;
3696;SDS011;60662;48.810;8.872;2022-11-20T15:27:30;11.20;;;3.63;;
3696;SDS011;60662;48.810;8.872;2022-11-20T15:28:44;9.40;;;4.15;;
3696;SDS011;60662;48.810;8.872;2022-11-20T15:29:51;10.23;;;3.80;;
